sensor_id;sensor_type;location;lat;lon;timestamp;pressure;altitude;pressure_sealevel;temperature;humidity
18527;BME280;9393;42.158;24.748;2023-04-20T00:01:36;99151.41;;;14.22;92.11
18527;BME280;9393;42.158;24.748;2023-04-20T00:04:39;99145.53;;;14.20;92.34
18527;BME280;9393;42.158;24.748;2023-04-20T00:07:45;99149.91;;;14.27;92.00
18527;BME280;9393;42.158;24.748;2023-04-20T00:10:49;99137.53;;;14.13;92.95
18527;BME280;9393;42.158;24.748;2023-04-20T00:13:53;99140.25;;;13.97;93.87
18527;BME280;9393;42.158;24.748;2023-04-20T00:16:57;99129.25;;;13.71;95.58
18527;BME280;9393;42.158;24.748;2023-04-20T00:20:00;99136.66;;;13.98;93.79
18527;BME280;9393;42.158;24.748;2023-04-20T00:23:06;99137.47;;;13.98;93.50
18527;BME280;9393;42.158;24.748;2023-04-20T00:26:10;99123.31;;;13.46;96.10
18527;BME280;9393;42.158;24.748;2023-04-20T00:29:15;99139.38;;;13.74;94.02
18527;BME280;9393;42.158;24.748;2023-04-20T00:32:19;99126.41;;;13.80;93.32
18527;BME280;9393;42.158;24.748;2023-04-20T00:35:23;99129.53;;;13.45;94.62
18527;BME280;9393;42.158;24.748;2023-04-20T00:38:28;99131.78;;;13.56;94.10
18527;BME280;9393;42.158;24.748;2023-04-20T00:41:33;99129.53;;;13.45;94.58
18527;BME280;9393;42.158;24.748;2023-04-20T00:44:37;99135.72;;;13.52;94.04
18527;BME280;9393;42.158;24.748;2023-04-20T00:47:41;99128.91;;;13.35;94.34
18527;BME280;9393;42.158;24.748;2023-04-20T00:50:45;99136.16;;;13.72;91.84
18527;BME280;9393;42.158;24.748;2023-04-20T00:53:50;99133.44;;;13.49;92.78
18527;BME280;9393;42.158;24.748;2023-04-20T00:56:54;99134.44;;;13.48;92.52
18527;BME280;9393;42.158;24.748;2023-04-20T00:59:59;99133.09;;;13.52;91.53
18527;BME280;9393;42.158;24.748;2023-04-20T01:03:03;99125.31;;;13.36;92.55
18527;BME280;9393;42.158;24.748;2023-04-20T01:06:07;99132.81;;;13.47;91.45
18527;BME280;9393;42.158;24.748;2023-04-20T01:09:13;99127.31;;;13.26;92.60
18527;BME280;9393;42.158;24.748;2023-04-20T01:12:18;99127.59;;;13.39;90.87
18527;BME280;9393;42.158;24.748;2023-04-20T01:15:22;99130.00;;;13.48;90.58
18527;BME280;9393;42.158;24.748;2023-04-20T01:18:25;99125.84;;;13.23;91.47
18527;BME280;9393;42.158;24.748;2023-04-20T01:21:30;99126.59;;;13.48;89.48
18527;BME280;9393;42.158;24.748;2023-04-20T01:24:35;99125.94;;;13.46;89.31
18527;BME280;9393;42.158;24.748;2023-04-20T01:27:39;99123.31;;;13.46;88.21
18527;BME280;9393;42.158;24.748;2023-04-20T01:30:43;99128.63;;;13.13;89.75
18527;BME280;9393;42.158;24.748;2023-04-20T01:33:46;99123.66;;;13.35;88.11
18527;BME280;9393;42.158;24.748;2023-04-20T01:36:50;99124.81;;;13.40;87.76
18527;BME280;9393;42.158;24.748;2023-04-20T01:39:55;99119.78;;;13.31;86.72
18527;BME280;9393;42.158;24.748;2023-04-20T01:42:59;99122.66;;;13.44;86.74
18527;BME280;9393;42.158;24.748;2023-04-20T01:46:03;99120.06;;;13.36;85.28
18527;BME280;9393;42.158;24.748;2023-04-20T01:49:07;99110.78;;;13.17;86.01
18527;BME280;9393;42.158;24.748;2023-04-20T01:52:11;99116.47;;;13.37;85.00
18527;BME280;9393;42.158;24.748;2023-04-20T01:55:16;99113.94;;;13.12;85.66
18527;BME280;9393;42.158;24.748;2023-04-20T01:58:21;99110.97;;;13.24;83.80
18527;BME280;9393;42.158;24.748;2023-04-20T02:01:24;99111.75;;;13.24;83.53
18527;BME280;9393;42.158;24.748;2023-04-20T02:04:28;99108.00;;;13.27;83.54
18527;BME280;9393;42.158;24.748;2023-04-20T02:07:32;99105.81;;;13.38;83.17
18527;BME280;9393;42.158;24.748;2023-04-20T02:10:37;99103.88;;;13.32;81.79
18527;BME280;9393;42.158;24.748;2023-04-20T02:13:43;99099.84;;;13.13;81.47
18527;BME280;9393;42.158;24.748;2023-04-20T02:16:46;99104.28;;;13.05;81.26
18527;BME280;9393;42.158;24.748;2023-04-20T02:19:50;99103.63;;;13.11;80.92
18527;BME280;9393;42.158;24.748;2023-04-20T02:22:53;99100.00;;;13.20;79.57
18527;BME280;9393;42.158;24.748;2023-04-20T02:25:58;99111.47;;;13.03;79.72
18527;BME280;9393;42.158;24.748;2023-04-20T02:29:02;99108.53;;;13.14;79.42
18527;BME280;9393;42.158;24.748;2023-04-20T02:32:08;99107.53;;;13.23;77.96
18527;BME280;9393;42.158;24.748;2023-04-20T02:35:11;99111.75;;;13.24;78.32
18527;BME280;9393;42.158;24.748;2023-04-20T02:38:16;99111.94;;;13.23;77.91
18527;BME280;9393;42.158;24.748;2023-04-20T02:41:22;99113.09;;;13.20;78.28
18527;BME280;9393;42.158;24.748;2023-04-20T02:44:25;99109.03;;;13.09;77.71
18527;BME280;9393;42.158;24.748;2023-04-20T02:47:29;99110.97;;;13.15;77.41
18527;BME280;9393;42.158;24.748;2023-04-20T02:50:33;99107.81;;;13.28;77.11
18527;BME280;9393;42.158;24.748;2023-04-20T02:53:54;99110.63;;;13.19;76.92
18527;BME280;9393;42.158;24.748;2023-04-20T02:57:04;99104.59;;;13.18;77.73
18527;BME280;9393;42.158;24.748;2023-04-20T03:00:08;99112.91;;;13.22;77.20
18527;BME280;9393;42.158;24.748;2023-04-20T03:03:32;99117.81;;;13.25;77.33
18527;BME280;9393;42.158;24.748;2023-04-20T03:06:37;99113.59;;;13.24;77.03
18527;BME280;9393;42.158;24.748;2023-04-20T03:09:44;99121.13;;;13.10;77.56
18527;BME280;9393;42.158;24.748;2023-04-20T03:13:19;99111.31;;;13.12;76.07
18527;BME280;9393;42.158;24.748;2023-04-20T03:16:35;99116.72;;;13.03;76.44
18527;BME280;9393;42.158;24.748;2023-04-20T03:19:39;99114.56;;;13.14;76.86
18527;BME280;9393;42.158;24.748;2023-04-20T03:22:43;99114.84;;;13.28;76.25
18527;BME280;9393;42.158;24.748;2023-04-20T03:25:46;99107.25;;;13.10;76.66
18527;BME280;9393;42.158;24.748;2023-04-20T03:29:14;99113.44;;;13.01;76.66
18527;BME280;9393;42.158;24.748;2023-04-20T03:32:19;99112.31;;;12.87;77.27
18527;BME280;9393;42.158;24.748;2023-04-20T03:35:23;99108.06;;;12.86;77.03
18527;BME280;9393;42.158;24.748;2023-04-20T03:38:27;99105.31;;;12.55;78.53
18527;BME280;9393;42.158;24.748;2023-04-20T03:41:31;99113.19;;;12.72;77.86
18527;BME280;9393;42.158;24.748;2023-04-20T03:44:35;99110.00;;;13.00;77.26
18527;BME280;9393;42.158;24.748;2023-04-20T03:47:39;99111.97;;;13.06;76.49
18527;BME280;9393;42.158;24.748;2023-04-20T03:50:43;99111.97;;;12.98;76.88
18527;BME280;9393;42.158;24.748;2023-04-20T03:53:47;99108.91;;;12.79;77.62
18527;BME280;9393;42.158;24.748;2023-04-20T03:56:51;99119.81;;;13.06;76.14
18527;BME280;9393;42.158;24.748;2023-04-20T03:59:57;99117.22;;;12.90;76.69
18527;BME280;9393;42.158;24.748;2023-04-20T04:03:07;99119.50;;;13.09;76.14
18527;BME280;9393;42.158;24.748;2023-04-20T04:06:11;99126.38;;;12.94;76.57
18527;BME280;9393;42.158;24.748;2023-04-20T04:09:15;99122.94;;;13.02;76.65
18527;BME280;9393;42.158;24.748;2023-04-20T04:12:19;99123.75;;;12.94;76.53
18527;BME280;9393;42.158;24.748;2023-04-20T04:15:26;99138.69;;;12.86;77.02
18527;BME280;9393;42.158;24.748;2023-04-20T04:18:42;99139.13;;;13.13;76.46
18527;BME280;9393;42.158;24.748;2023-04-20T04:21:45;99126.34;;;13.27;75.87
18527;BME280;9393;42.158;24.748;2023-04-20T04:24:49;99129.44;;;13.22;76.34
18527;BME280;9393;42.158;24.748;2023-04-20T04:27:55;99138.28;;;13.21;76.43
18527;BME280;9393;42.158;24.748;2023-04-20T04:31:02;99133.00;;;13.37;76.29
18527;BME280;9393;42.158;24.748;2023-04-20T04:34:08;99142.22;;;13.64;74.12
18527;BME280;9393;42.158;24.748;2023-04-20T04:37:25;99144.03;;;13.63;74.14
18527;BME280;9393;42.158;24.748;2023-04-20T04:40:30;99139.53;;;13.80;72.63
18527;BME280;9393;42.158;24.748;2023-04-20T04:43:36;99137.81;;;13.95;71.14
18527;BME280;9393;42.158;24.748;2023-04-20T04:46:55;99139.13;;;13.91;71.61
18527;BME280;9393;42.158;24.748;2023-04-20T04:50:00;99145.81;;;13.71;72.41
18527;BME280;9393;42.158;24.748;2023-04-20T04:53:07;99139.19;;;13.83;73.07
18527;BME280;9393;42.158;24.748;2023-04-20T04:56:11;99148.22;;;13.73;73.92
18527;BME280;9393;42.158;24.748;2023-04-20T04:59:15;99142.34;;;13.71;74.27
18527;BME280;9393;42.158;24.748;2023-04-20T05:02:20;99147.69;;;13.85;73.40
18527;BME280;9393;42.158;24.748;2023-04-20T05:05:24;99148.06;;;14.05;73.62
18527;BME280;9393;42.158;24.748;2023-04-20T05:08:28;99147.91;;;14.06;72.85
18527;BME280;9393;42.158;24.748;2023-04-20T05:11:32;99145.84;;;13.94;72.91
18527;BME280;9393;42.158;24.748;2023-04-20T05:14:35;99154.06;;;14.13;72.03
18527;BME280;9393;42.158;24.748;2023-04-20T05:17:41;99152.69;;;14.26;71.44
18527;BME280;9393;42.158;24.748;2023-04-20T05:20:45;99156.13;;;14.26;71.16
18527;BME280;9393;42.158;24.748;2023-04-20T05:23:49;99156.66;;;14.22;71.45
18527;BME280;9393;42.158;24.748;2023-04-20T05:26:52;99156.00;;;14.50;71.02
18527;BME280;9393;42.158;24.748;2023-04-20T05:29:56;99154.16;;;14.74;70.39
18527;BME280;9393;42.158;24.748;2023-04-20T05:33:21;99161.84;;;14.75;69.75
18527;BME280;9393;42.158;24.748;2023-04-20T05:36:25;99162.44;;;14.85;69.82
18527;BME280;9393;42.158;24.748;2023-04-20T05:39:30;99159.72;;;14.56;69.67
18527;BME280;9393;42.158;24.748;2023-04-20T05:42:34;99159.91;;;14.69;69.25
18527;BME280;9393;42.158;24.748;2023-04-20T05:45:38;99150.44;;;14.68;68.57
18527;BME280;9393;42.158;24.748;2023-04-20T05:48:43;99157.84;;;15.02;67.00
18527;BME280;9393;42.158;24.748;2023-04-20T05:51:47;99158.03;;;15.15;65.08
18527;BME280;9393;42.158;24.748;2023-04-20T05:54:51;99152.16;;;15.13;65.88
18527;BME280;9393;42.158;24.748;2023-04-20T05:57:55;99154.81;;;14.90;66.51
18527;BME280;9393;42.158;24.748;2023-04-20T06:00:59;99155.22;;;15.16;64.72
18527;BME280;9393;42.158;24.748;2023-04-20T06:04:05;99157.13;;;15.23;65.14
18527;BME280;9393;42.158;24.748;2023-04-20T06:07:09;99160.13;;;15.20;64.55
18527;BME280;9393;42.158;24.748;2023-04-20T06:10:13;99166.66;;;15.53;63.82
18527;BME280;9393;42.158;24.748;2023-04-20T06:13:16;99163.59;;;15.64;62.25
18527;BME280;9393;42.158;24.748;2023-04-20T06:16:20;99160.94;;;16.14;60.27
18527;BME280;9393;42.158;24.748;2023-04-20T06:19:25;99162.13;;;16.33;60.07
18527;BME280;9393;42.158;24.748;2023-04-20T06:22:29;99169.38;;;16.31;59.69
18527;BME280;9393;42.158;24.748;2023-04-20T06:25:35;99171.13;;;16.60;59.62
18527;BME280;9393;42.158;24.748;2023-04-20T06:28:38;99169.09;;;16.62;59.22
18527;BME280;9393;42.158;24.748;2023-04-20T06:31:42;99167.34;;;16.48;58.93
18527;BME280;9393;42.158;24.748;2023-04-20T06:34:48;99171.56;;;16.63;59.14
18527;BME280;9393;42.158;24.748;2023-04-20T06:37:53;99167.56;;;16.67;57.73
18527;BME280;9393;42.158;24.748;2023-04-20T06:40:58;99166.19;;;16.99;58.51
18527;BME280;9393;42.158;24.748;2023-04-20T06:44:03;99163.34;;;17.29;57.25
18527;BME280;9393;42.158;24.748;2023-04-20T06:47:07;99163.78;;;17.39;56.75
18527;BME280;9393;42.158;24.748;2023-04-20T06:50:12;99163.63;;;17.81;55.45
18527;BME280;9393;42.158;24.748;2023-04-20T06:53:16;99164.16;;;18.17;54.66
18527;BME280;9393;42.158;24.748;2023-04-20T06:56:20;99161.28;;;18.06;54.00
18527;BME280;9393;42.158;24.748;2023-04-20T06:59:24;99163.84;;;18.66;53.39
18527;BME280;9393;42.158;24.748;2023-04-20T07:02:28;99160.22;;;18.61;53.45
18527;BME280;9393;42.158;24.748;2023-04-20T07:05:35;99162.44;;;18.71;53.54
18527;BME280;9393;42.158;24.748;2023-04-20T07:08:39;99163.13;;;18.12;54.03
18527;BME280;9393;42.158;24.748;2023-04-20T07:11:42;99165.22;;;18.30;52.70
18527;BME280;9393;42.158;24.748;2023-04-20T07:14:46;99151.06;;;18.50;52.08
18527;BME280;9393;42.158;24.748;2023-04-20T07:17:50;99155.94;;;18.60;51.93
18527;BME280;9393;42.158;24.748;2023-04-20T07:20:55;99161.63;;;18.57;52.33
18527;BME280;9393;42.158;24.748;2023-04-20T07:23:59;99155.53;;;18.83;52.66
18527;BME280;9393;42.158;24.748;2023-04-20T07:27:02;99154.69;;;18.62;51.84
18527;BME280;9393;42.158;24.748;2023-04-20T07:30:08;99152.47;;;18.79;52.20
18527;BME280;9393;42.158;24.748;2023-04-20T07:33:12;99155.03;;;19.45;51.40
18527;BME280;9393;42.158;24.748;2023-04-20T07:36:17;99156.50;;;19.21;50.33
18527;BME280;9393;42.158;24.748;2023-04-20T07:39:22;99160.59;;;18.84;49.86
18527;BME280;9393;42.158;24.748;2023-04-20T07:42:31;99160.16;;;19.27;50.21
18527;BME280;9393;42.158;24.748;2023-04-20T07:45:38;99166.09;;;19.09;50.36
18527;BME280;9393;42.158;24.748;2023-04-20T07:48:42;99165.28;;;18.95;51.92
18527;BME280;9393;42.158;24.748;2023-04-20T07:51:48;99162.56;;;19.35;50.45
18527;BME280;9393;42.158;24.748;2023-04-20T07:54:51;99173.34;;;19.40;51.01
18527;BME280;9393;42.158;24.748;2023-04-20T07:57:56;99161.53;;;19.55;50.55
18527;BME280;9393;42.158;24.748;2023-04-20T08:00:59;99164.63;;;19.26;51.50
18527;BME280;9393;42.158;24.748;2023-04-20T08:04:03;99164.44;;;19.21;50.45
18527;BME280;9393;42.158;24.748;2023-04-20T08:07:09;99158.97;;;19.09;51.02
18527;BME280;9393;42.158;24.748;2023-04-20T08:10:13;99162.44;;;19.16;50.58
18527;BME280;9393;42.158;24.748;2023-04-20T08:13:17;99160.31;;;19.51;49.95
18527;BME280;9393;42.158;24.748;2023-04-20T08:16:21;99162.81;;;19.27;50.55
18527;BME280;9393;42.158;24.748;2023-04-20T08:19:25;99148.00;;;19.83;50.34
18527;BME280;9393;42.158;24.748;2023-04-20T08:22:30;99147.44;;;19.75;49.98
18527;BME280;9393;42.158;24.748;2023-04-20T08:25:37;99143.34;;;19.72;49.56
18527;BME280;9393;42.158;24.748;2023-04-20T08:28:41;99147.22;;;20.14;48.80
18527;BME280;9393;42.158;24.748;2023-04-20T08:31:46;99156.59;;;20.16;48.70
18527;BME280;9393;42.158;24.748;2023-04-20T08:34:54;99147.91;;;20.03;49.42
18527;BME280;9393;42.158;24.748;2023-04-20T08:37:59;99142.78;;;20.71;48.13
18527;BME280;9393;42.158;24.748;2023-04-20T08:41:03;99148.88;;;21.21;48.05
18527;BME280;9393;42.158;24.748;2023-04-20T08:44:07;99137.53;;;21.13;46.08
18527;BME280;9393;42.158;24.748;2023-04-20T08:47:13;99131.44;;;20.88;47.03
18527;BME280;9393;42.158;24.748;2023-04-20T08:50:18;99135.22;;;20.74;47.33
18527;BME280;9393;42.158;24.748;2023-04-20T08:53:23;99140.81;;;21.34;45.23
18527;BME280;9393;42.158;24.748;2023-04-20T08:56:34;99130.56;;;21.37;44.14
18527;BME280;9393;42.158;24.748;2023-04-20T08:59:38;99133.34;;;21.60;43.23
18527;BME280;9393;42.158;24.748;2023-04-20T09:02:52;99130.88;;;21.47;43.16
18527;BME280;9393;42.158;24.748;2023-04-20T09:05:57;99120.75;;;21.56;44.09
18527;BME280;9393;42.158;24.748;2023-04-20T09:09:08;99126.56;;;21.64;43.47
18527;BME280;9393;42.158;24.748;2023-04-20T09:12:12;99129.63;;;21.80;44.44
18527;BME280;9393;42.158;24.748;2023-04-20T09:15:26;99136.66;;;21.74;43.73
18527;BME280;9393;42.158;24.748;2023-04-20T09:18:30;99139.72;;;21.89;42.61
18527;BME280;9393;42.158;24.748;2023-04-20T09:21:34;99134.00;;;21.74;42.60
18527;BME280;9393;42.158;24.748;2023-04-20T09:24:40;99127.97;;;21.67;42.56
18527;BME280;9393;42.158;24.748;2023-04-20T09:27:54;99133.69;;;22.00;41.57
18527;BME280;9393;42.158;24.748;2023-04-20T09:30:58;99119.97;;;21.37;42.69
18527;BME280;9393;42.158;24.748;2023-04-20T09:34:02;99120.56;;;22.17;41.76
18527;BME280;9393;42.158;24.748;2023-04-20T09:37:08;99109.16;;;21.68;42.14
18527;BME280;9393;42.158;24.748;2023-04-20T09:40:15;99123.31;;;22.52;41.48
18527;BME280;9393;42.158;24.748;2023-04-20T09:43:19;99113.94;;;22.26;40.66
18527;BME280;9393;42.158;24.748;2023-04-20T09:46:28;99122.22;;;21.52;41.23
18527;BME280;9393;42.158;24.748;2023-04-20T09:49:34;99113.53;;;21.63;41.87
18527;BME280;9393;42.158;24.748;2023-04-20T09:52:38;99115.81;;;22.07;40.93
18527;BME280;9393;42.158;24.748;2023-04-20T09:55:46;99113.63;;;22.04;41.01
18527;BME280;9393;42.158;24.748;2023-04-20T09:58:51;99108.97;;;21.52;41.59
18527;BME280;9393;42.158;24.748;2023-04-20T10:01:55;99107.00;;;21.95;40.14
18527;BME280;9393;42.158;24.748;2023-04-20T10:04:59;99091.53;;;22.34;39.85
18527;BME280;9393;42.158;24.748;2023-04-20T10:08:03;99086.66;;;22.19;39.86
18527;BME280;9393;42.158;24.748;2023-04-20T10:11:08;99098.56;;;22.17;39.47
18527;BME280;9393;42.158;24.748;2023-04-20T10:14:17;99081.22;;;22.79;39.19
18527;BME280;9393;42.158;24.748;2023-04-20T10:17:28;99086.72;;;23.24;38.42
18527;BME280;9393;42.158;24.748;2023-04-20T10:20:32;99078.28;;;23.27;37.29
18527;BME280;9393;42.158;24.748;2023-04-20T10:23:46;99070.81;;;24.08;36.52
18527;BME280;9393;42.158;24.748;2023-04-20T10:26:52;99075.38;;;24.25;35.97
18527;BME280;9393;42.158;24.748;2023-04-20T10:29:55;99071.94;;;23.68;35.45
18527;BME280;9393;42.158;24.748;2023-04-20T10:33:03;99073.34;;;23.58;36.78
18527;BME280;9393;42.158;24.748;2023-04-20T10:36:07;99070.59;;;23.82;36.82
18527;BME280;9393;42.158;24.748;2023-04-20T10:39:15;99070.09;;;23.68;36.65
18527;BME280;9393;42.158;24.748;2023-04-20T10:42:22;99067.66;;;23.95;36.76
18527;BME280;9393;42.158;24.748;2023-04-20T10:45:36;99068.94;;;23.12;35.85
18527;BME280;9393;42.158;24.748;2023-04-20T10:48:49;99069.63;;;22.61;36.73
18527;BME280;9393;42.158;24.748;2023-04-20T10:51:54;99079.84;;;22.35;38.35
18527;BME280;9393;42.158;24.748;2023-04-20T10:54:58;99075.31;;;22.12;39.20
18527;BME280;9393;42.158;24.748;2023-04-20T10:58:03;99077.94;;;22.00;40.26
18527;BME280;9393;42.158;24.748;2023-04-20T11:01:07;99082.66;;;21.50;43.63
18527;BME280;9393;42.158;24.748;2023-04-20T11:04:11;99092.25;;;21.15;48.79
18527;BME280;9393;42.158;24.748;2023-04-20T11:07:19;99097.31;;;20.17;51.82
18527;BME280;9393;42.158;24.748;2023-04-20T11:10:24;99090.66;;;19.71;52.40
18527;BME280;9393;42.158;24.748;2023-04-20T11:13:40;99081.88;;;19.19;53.89
18527;BME280;9393;42.158;24.748;2023-04-20T11:16:51;99080.22;;;19.25;54.79
18527;BME280;9393;42.158;24.748;2023-04-20T11:20:03;99087.28;;;18.60;60.53
18527;BME280;9393;42.158;24.748;2023-04-20T11:23:10;99071.38;;;18.14;58.61
18527;BME280;9393;42.158;24.748;2023-04-20T11:26:14;99062.09;;;18.51;58.49
18527;BME280;9393;42.158;24.748;2023-04-20T11:29:32;99059.41;;;18.18;56.55
18527;BME280;9393;42.158;24.748;2023-04-20T11:32:37;99046.84;;;18.27;54.41
18527;BME280;9393;42.158;24.748;2023-04-20T11:35:41;99049.47;;;18.46;53.92
18527;BME280;9393;42.158;24.748;2023-04-20T11:38:45;99051.69;;;18.23;53.60
18527;BME280;9393;42.158;24.748;2023-04-20T11:41:49;99043.78;;;18.23;56.09
18527;BME280;9393;42.158;24.748;2023-04-20T11:44:55;99039.72;;;18.47;56.36
18527;BME280;9393;42.158;24.748;2023-04-20T11:47:58;99044.81;;;18.68;56.43
18527;BME280;9393;42.158;24.748;2023-04-20T11:51:02;99033.19;;;18.89;56.33
18527;BME280;9393;42.158;24.748;2023-04-20T11:54:06;99037.09;;;20.13;53.33
18527;BME280;9393;42.158;24.748;2023-04-20T11:57:10;99027.81;;;20.29;50.99
18527;BME280;9393;42.158;24.748;2023-04-20T12:00:16;99025.91;;;20.97;50.48
18527;BME280;9393;42.158;24.748;2023-04-20T12:03:21;99017.41;;;20.95;49.04
18527;BME280;9393;42.158;24.748;2023-04-20T12:06:25;99013.78;;;21.44;46.74
18527;BME280;9393;42.158;24.748;2023-04-20T12:09:30;99011.97;;;21.86;46.22
18527;BME280;9393;42.158;24.748;2023-04-20T12:12:37;99011.72;;;21.87;43.24
18527;BME280;9393;42.158;24.748;2023-04-20T12:15:44;99009.19;;;21.51;42.56
18527;BME280;9393;42.158;24.748;2023-04-20T12:18:48;99001.41;;;21.79;41.53
18527;BME280;9393;42.158;24.748;2023-04-20T12:21:52;98996.34;;;22.19;40.95
18527;BME280;9393;42.158;24.748;2023-04-20T12:24:56;99002.81;;;22.35;40.49
18527;BME280;9393;42.158;24.748;2023-04-20T12:27:59;98989.28;;;22.48;38.33
18527;BME280;9393;42.158;24.748;2023-04-20T12:31:09;98985.13;;;21.64;39.72
18527;BME280;9393;42.158;24.748;2023-04-20T12:34:13;98978.13;;;21.51;40.32
18527;BME280;9393;42.158;24.748;2023-04-20T12:37:17;98985.84;;;21.83;40.88
18527;BME280;9393;42.158;24.748;2023-04-20T12:40:22;98983.03;;;21.66;41.20
18527;BME280;9393;42.158;24.748;2023-04-20T12:43:25;98975.38;;;21.17;42.00
18527;BME280;9393;42.158;24.748;2023-04-20T12:46:31;98975.47;;;21.03;41.69
18527;BME280;9393;42.158;24.748;2023-04-20T12:49:35;98968.22;;;21.88;40.47
18527;BME280;9393;42.158;24.748;2023-04-20T12:52:39;98968.41;;;22.40;39.33
18527;BME280;9393;42.158;24.748;2023-04-20T12:55:42;98963.31;;;22.50;37.84
18527;BME280;9393;42.158;24.748;2023-04-20T12:58:46;98965.16;;;22.49;38.46
18527;BME280;9393;42.158;24.748;2023-04-20T13:01:51;98959.41;;;22.41;37.84
18527;BME280;9393;42.158;24.748;2023-04-20T13:04:55;98961.06;;;23.05;38.57
18527;BME280;9393;42.158;24.748;2023-04-20T13:07:59;98963.66;;;22.65;37.82
18527;BME280;9393;42.158;24.748;2023-04-20T13:11:03;98961.78;;;22.65;38.21
18527;BME280;9393;42.158;24.748;2023-04-20T13:14:07;98958.69;;;22.80;38.16
18527;BME280;9393;42.158;24.748;2023-04-20T13:17:12;98958.34;;;22.77;38.12
18527;BME280;9393;42.158;24.748;2023-04-20T13:20:16;98963.66;;;22.88;38.31
18527;BME280;9393;42.158;24.748;2023-04-20T13:23:20;98963.03;;;22.98;39.18
18527;BME280;9393;42.158;24.748;2023-04-20T13:26:24;98964.25;;;23.19;37.62
18527;BME280;9393;42.158;24.748;2023-04-20T13:29:28;98967.38;;;23.15;36.36
18527;BME280;9393;42.158;24.748;2023-04-20T13:32:34;98966.91;;;23.19;36.47
18527;BME280;9393;42.158;24.748;2023-04-20T13:35:40;98972.66;;;22.87;37.11
18527;BME280;9393;42.158;24.748;2023-04-20T13:38:44;98977.75;;;22.89;37.70
18527;BME280;9393;42.158;24.748;2023-04-20T13:41:48;98971.06;;;22.75;38.19
18527;BME280;9393;42.158;24.748;2023-04-20T13:44:52;98978.22;;;22.51;38.00
18527;BME280;9393;42.158;24.748;2023-04-20T13:47:57;98967.34;;;22.76;37.67
18527;BME280;9393;42.158;24.748;2023-04-20T13:51:01;98965.50;;;22.76;37.41
18527;BME280;9393;42.158;24.748;2023-04-20T13:54:05;98961.94;;;22.82;37.83
18527;BME280;9393;42.158;24.748;2023-04-20T13:57:09;98965.13;;;22.96;37.62
18527;BME280;9393;42.158;24.748;2023-04-20T14:00:13;98964.31;;;22.95;37.64
18527;BME280;9393;42.158;24.748;2023-04-20T14:03:18;98964.09;;;23.25;36.76
18527;BME280;9393;42.158;24.748;2023-04-20T14:06:22;98967.94;;;23.17;37.39
18527;BME280;9393;42.158;24.748;2023-04-20T14:09:26;98978.63;;;23.06;37.48
18527;BME280;9393;42.158;24.748;2023-04-20T14:12:31;98974.38;;;23.33;38.25
18527;BME280;9393;42.158;24.748;2023-04-20T14:15:35;98975.78;;;23.24;38.33
18527;BME280;9393;42.158;24.748;2023-04-20T14:18:41;98968.97;;;22.77;39.90
18527;BME280;9393;42.158;24.748;2023-04-20T14:21:44;98977.84;;;23.34;39.02
18527;BME280;9393;42.158;24.748;2023-04-20T14:24:48;98976.22;;;23.44;37.68
18527;BME280;9393;42.158;24.748;2023-04-20T14:27:52;98977.38;;;23.37;37.29
18527;BME280;9393;42.158;24.748;2023-04-20T14:30:56;98976.28;;;23.49;38.14
18527;BME280;9393;42.158;24.748;2023-04-20T14:34:03;98977.38;;;23.37;37.42
18527;BME280;9393;42.158;24.748;2023-04-20T14:37:07;98980.69;;;23.15;37.11
18527;BME280;9393;42.158;24.748;2023-04-20T14:40:11;98967.44;;;23.44;36.72
18527;BME280;9393;42.158;24.748;2023-04-20T14:43:15;98964.63;;;23.39;36.27
18527;BME280;9393;42.158;24.748;2023-04-20T14:46:19;98963.63;;;23.28;37.29
18527;BME280;9393;42.158;24.748;2023-04-20T14:49:24;98962.28;;;23.14;37.85
18527;BME280;9393;42.158;24.748;2023-04-20T14:52:28;98968.56;;;22.96;38.50
18527;BME280;9393;42.158;24.748;2023-04-20T14:55:32;98961.75;;;23.00;36.58
18527;BME280;9393;42.158;24.748;2023-04-20T14:58:36;98965.63;;;22.81;37.44
18527;BME280;9393;42.158;24.748;2023-04-20T15:01:41;98967.25;;;22.82;37.29
18527;BME280;9393;42.158;24.748;2023-04-20T15:05:04;98959.63;;;22.86;37.52
18527;BME280;9393;42.158;24.748;2023-04-20T15:08:11;98959.97;;;22.43;37.20
18527;BME280;9393;42.158;24.748;2023-04-20T15:11:15;98955.22;;;22.10;38.02
18527;BME280;9393;42.158;24.748;2023-04-20T15:14:19;98952.47;;;22.17;37.89
18527;BME280;9393;42.158;24.748;2023-04-20T15:17:23;98959.75;;;22.09;37.83
18527;BME280;9393;42.158;24.748;2023-04-20T15:20:29;98960.25;;;21.88;38.65
18527;BME280;9393;42.158;24.748;2023-04-20T15:23:32;98959.03;;;21.91;39.95
18527;BME280;9393;42.158;24.748;2023-04-20T15:26:36;98967.06;;;21.43;41.78
18527;BME280;9393;42.158;24.748;2023-04-20T15:29:40;98970.72;;;21.12;42.64
18527;BME280;9393;42.158;24.748;2023-04-20T15:32:44;98967.84;;;20.95;42.36
18527;BME280;9393;42.158;24.748;2023-04-20T15:35:49;98974.66;;;20.48;44.31
18527;BME280;9393;42.158;24.748;2023-04-20T15:38:53;98979.22;;;20.16;45.56
18527;BME280;9393;42.158;24.748;2023-04-20T15:41:59;98978.06;;;19.81;46.85
18527;BME280;9393;42.158;24.748;2023-04-20T15:45:05;98979.03;;;19.87;47.61
18527;BME280;9393;42.158;24.748;2023-04-20T15:48:09;98986.34;;;19.91;47.63
18527;BME280;9393;42.158;24.748;2023-04-20T15:51:15;98976.00;;;19.52;48.13
18527;BME280;9393;42.158;24.748;2023-04-20T15:54:20;98984.22;;;19.37;48.70
18527;BME280;9393;42.158;24.748;2023-04-20T15:57:24;98989.88;;;19.34;48.43
18527;BME280;9393;42.158;24.748;2023-04-20T16:00:28;98991.38;;;18.66;50.22
18527;BME280;9393;42.158;24.748;2023-04-20T16:03:32;98991.38;;;18.66;50.55
18527;BME280;9393;42.158;24.748;2023-04-20T16:06:39;98990.53;;;18.72;50.48
18527;BME280;9393;42.158;24.748;2023-04-20T16:09:43;98997.66;;;18.78;50.28
18527;BME280;9393;42.158;24.748;2023-04-20T16:12:46;98994.81;;;18.73;50.86
18527;BME280;9393;42.158;24.748;2023-04-20T16:15:51;98994.81;;;18.73;50.89
18527;BME280;9393;42.158;24.748;2023-04-20T16:18:54;98998.06;;;18.75;50.96
18527;BME280;9393;42.158;24.748;2023-04-20T16:22:00;98999.13;;;18.61;51.01